sensor_id;sensor_type;location;lat;lon;timestamp;pressure;altitude;pressure_sealevel;temperature;humidity
69909;BME280;57190;47.918;8.112;2024-01-30T00:01:13;92061.97;;;5.28;47.93
69909;BME280;57190;47.918;8.112;2024-01-30T00:03:38;92059.91;;;5.30;47.86
69909;BME280;57190;47.918;8.112;2024-01-30T00:06:04;92064.78;;;5.26;49.30
69909;BME280;57190;47.918;8.112;2024-01-30T00:08:29;92065.00;;;5.25;48.67
69909;BME280;57190;47.918;8.112;2024-01-30T00:10:55;92069.69;;;5.36;47.62
69909;BME280;57190;47.918;8.112;2024-01-30T00:13:20;92059.47;;;5.46;46.98
69909;BME280;57190;47.918;8.112;2024-01-30T00:15:46;92052.75;;;5.57;46.13
69909;BME280;57190;47.918;8.112;2024-01-30T00:18:12;92063.94;;;5.66;45.66
69909;BME280;57190;47.918;8.112;2024-01-30T00:20:37;92061.69;;;5.63;45.87
69909;BME280;57190;47.918;8.112;2024-01-30T00:23:06;92055.59;;;5.62;45.84
69909;BME280;57190;47.918;8.112;2024-01-30T00:25:31;92059.22;;;5.75;44.96
69909;BME280;57190;47.918;8.112;2024-01-30T00:27:58;92048.44;;;5.76;44.82
69909;BME280;57190;47.918;8.112;2024-01-30T00:30:24;92052.91;;;5.76;45.11
69909;BME280;57190;47.918;8.112;2024-01-30T00:32:49;92050.00;;;5.84;44.13
69909;BME280;57190;47.918;8.112;2024-01-30T00:35:15;92055.50;;;5.89;43.65
69909;BME280;57190;47.918;8.112;2024-01-30T00:37:40;92051.06;;;5.76;44.36
69909;BME280;57190;47.918;8.112;2024-01-30T00:40:06;92050.25;;;5.76;43.82
69909;BME280;57190;47.918;8.112;2024-01-30T00:42:32;92056.34;;;5.83;44.53
69909;BME280;57190;47.918;8.112;2024-01-30T00:44:58;92055.53;;;5.76;45.05
69909;BME280;57190;47.918;8.112;2024-01-30T00:47:23;92058.41;;;5.74;44.47
69909;BME280;57190;47.918;8.112;2024-01-30T00:49:49;92054.91;;;5.80;44.74
69909;BME280;57190;47.918;8.112;2024-01-30T00:52:15;92054.13;;;5.73;44.99
69909;BME280;57190;47.918;8.112;2024-01-30T00:54:41;92059.66;;;5.65;44.94
69909;BME280;57190;47.918;8.112;2024-01-30T00:57:07;92049.88;;;5.65;44.68
69909;BME280;57190;47.918;8.112;2024-01-30T00:59:32;92052.91;;;5.76;44.20
69909;BME280;57190;47.918;8.112;2024-01-30T01:01:58;92056.34;;;5.83;43.18
69909;BME280;57190;47.918;8.112;2024-01-30T01:04:23;92051.69;;;5.72;44.54
69909;BME280;57190;47.918;8.112;2024-01-30T01:06:49;92063.34;;;5.57;45.28
69909;BME280;57190;47.918;8.112;2024-01-30T01:09:15;92059.69;;;5.45;46.42
69909;BME280;57190;47.918;8.112;2024-01-30T01:11:40;92059.47;;;5.46;46.25
69909;BME280;57190;47.918;8.112;2024-01-30T01:14:06;92068.03;;;5.55;44.64
69909;BME280;57190;47.918;8.112;2024-01-30T01:16:33;92064.75;;;5.60;45.06
69909;BME280;57190;47.918;8.112;2024-01-30T01:18:59;92066.56;;;5.59;44.38
69909;BME280;57190;47.918;8.112;2024-01-30T01:21:25;92063.56;;;5.49;45.61
69909;BME280;57190;47.918;8.112;2024-01-30T01:23:51;92056.44;;;5.49;45.40
69909;BME280;57190;47.918;8.112;2024-01-30T01:26:16;92063.56;;;5.49;46.34
69909;BME280;57190;47.918;8.112;2024-01-30T01:28:42;92060.91;;;5.42;45.94
69909;BME280;57190;47.918;8.112;2024-01-30T01:31:07;92062.13;;;5.53;45.38
69909;BME280;57190;47.918;8.112;2024-01-30T01:33:33;92056.38;;;5.70;44.56
69909;BME280;57190;47.918;8.112;2024-01-30T01:35:59;92058.22;;;5.62;45.52
69909;BME280;57190;47.918;8.112;2024-01-30T01:38:25;92065.78;;;5.59;45.92
69909;BME280;57190;47.918;8.112;2024-01-30T01:40:51;92061.91;;;5.55;46.37
69909;BME280;57190;47.918;8.112;2024-01-30T01:43:16;92064.16;;;5.58;46.58
69909;BME280;57190;47.918;8.112;2024-01-30T01:45:42;92063.34;;;5.50;46.76
69909;BME280;57190;47.918;8.112;2024-01-30T01:48:08;92054.19;;;5.46;47.91
69909;BME280;57190;47.918;8.112;2024-01-30T01:50:35;92054.22;;;5.33;48.75
69909;BME280;57190;47.918;8.112;2024-01-30T01:53:01;92049.53;;;5.28;47.70
69909;BME280;57190;47.918;8.112;2024-01-30T01:55:29;92053.19;;;5.27;48.08
69909;BME280;57190;47.918;8.112;2024-01-30T01:57:56;92049.31;;;5.37;47.94
69909;BME280;57190;47.918;8.112;2024-01-30T02:00:22;92044.88;;;5.30;47.85
69909;BME280;57190;47.918;8.112;2024-01-30T02:02:49;92048.13;;;5.26;47.91
69909;BME280;57190;47.918;8.112;2024-01-30T02:05:16;92053.59;;;5.38;47.95
69909;BME280;57190;47.918;8.112;2024-01-30T02:07:43;92043.84;;;5.25;49.04
69909;BME280;57190;47.918;8.112;2024-01-30T02:10:09;92044.47;;;5.13;49.02
69909;BME280;57190;47.918;8.112;2024-01-30T02:12:38;92048.53;;;5.09;49.20
69909;BME280;57190;47.918;8.112;2024-01-30T02:15:04;92049.13;;;5.25;48.18
69909;BME280;57190;47.918;8.112;2024-01-30T02:17:30;92048.13;;;5.19;48.69
69909;BME280;57190;47.918;8.112;2024-01-30T02:19:56;92046.91;;;5.08;49.86
69909;BME280;57190;47.918;8.112;2024-01-30T02:22:23;92051.41;;;5.01;50.59
69909;BME280;57190;47.918;8.112;2024-01-30T02:24:49;92048.75;;;5.01;50.15
69909;BME280;57190;47.918;8.112;2024-01-30T02:27:15;92041.84;;;5.07;49.73
69909;BME280;57190;47.918;8.112;2024-01-30T02:29:40;92043.25;;;5.09;49.84
69909;BME280;57190;47.918;8.112;2024-01-30T02:32:06;92041.41;;;5.10;50.01
69909;BME280;57190;47.918;8.112;2024-01-30T02:34:33;92042.44;;;5.09;49.37
69909;BME280;57190;47.918;8.112;2024-01-30T02:36:58;92048.31;;;5.04;50.12
69909;BME280;57190;47.918;8.112;2024-01-30T02:39:24;92049.34;;;4.90;50.39
69909;BME280;57190;47.918;8.112;2024-01-30T02:41:50;92052.19;;;4.81;50.88
69909;BME280;57190;47.918;8.112;2024-01-30T02:44:15;92048.75;;;4.81;50.19
69909;BME280;57190;47.918;8.112;2024-01-30T02:46:41;92039.19;;;4.80;49.40
69909;BME280;57190;47.918;8.112;2024-01-30T02:49:06;92045.09;;;4.75;50.11
69909;BME280;57190;47.918;8.112;2024-01-30T02:51:32;92051.38;;;4.74;50.30
69909;BME280;57190;47.918;8.112;2024-01-30T02:54:00;92040.41;;;4.84;49.72
69909;BME280;57190;47.918;8.112;2024-01-30T02:56:26;92033.47;;;4.83;49.49
69909;BME280;57190;47.918;8.112;2024-01-30T02:58:51;92035.94;;;4.84;48.74
69909;BME280;57190;47.918;8.112;2024-01-30T03:01:17;92040.59;;;4.82;48.58
69909;BME280;57190;47.918;8.112;2024-01-30T03:03:42;92038.75;;;4.83;48.71
69909;BME280;57190;47.918;8.112;2024-01-30T03:06:08;92033.28;;;4.78;48.97
69909;BME280;57190;47.918;8.112;2024-01-30T03:08:34;92038.16;;;4.74;49.70
69909;BME280;57190;47.918;8.112;2024-01-30T03:11:00;92046.69;;;4.83;49.12
69909;BME280;57190;47.918;8.112;2024-01-30T03:13:26;92042.44;;;4.95;47.92
69909;BME280;57190;47.918;8.112;2024-01-30T03:15:51;92044.69;;;4.98;47.71
69909;BME280;57190;47.918;8.112;2024-01-30T03:18:17;92040.63;;;4.89;48.26
69909;BME280;57190;47.918;8.112;2024-01-30T03:20:43;92043.88;;;4.84;48.91
69909;BME280;57190;47.918;8.112;2024-01-30T03:23:08;92045.06;;;4.88;48.61
69909;BME280;57190;47.918;8.112;2024-01-30T03:25:34;92035.94;;;4.84;48.90
69909;BME280;57190;47.918;8.112;2024-01-30T03:27:59;92049.34;;;4.90;48.54
69909;BME280;57190;47.918;8.112;2024-01-30T03:30:25;92048.34;;;4.91;48.28
69909;BME280;57190;47.918;8.112;2024-01-30T03:32:50;92052.81;;;4.97;47.58
69909;BME280;57190;47.918;8.112;2024-01-30T03:35:16;92044.28;;;4.95;47.92
69909;BME280;57190;47.918;8.112;2024-01-30T03:37:41;92043.66;;;4.86;48.42
69909;BME280;57190;47.918;8.112;2024-01-30T03:40:07;92051.97;;;4.69;50.11
69909;BME280;57190;47.918;8.112;2024-01-30T03:42:32;92051.56;;;4.59;50.59
69909;BME280;57190;47.918;8.112;2024-01-30T03:44:58;92046.91;;;4.61;50.58
69909;BME280;57190;47.918;8.112;2024-01-30T03:47:23;92052.81;;;4.63;50.43
69909;BME280;57190;47.918;8.112;2024-01-30T03:49:49;92053.22;;;4.67;49.51
69909;BME280;57190;47.918;8.112;2024-01-30T03:52:14;92053.22;;;4.74;49.81
69909;BME280;57190;47.918;8.112;2024-01-30T03:54:42;92048.13;;;4.79;49.11
69909;BME280;57190;47.918;8.112;2024-01-30T03:57:07;92053.81;;;4.76;49.78
69909;BME280;57190;47.918;8.112;2024-01-30T03:59:33;92049.97;;;4.85;49.28
69909;BME280;57190;47.918;8.112;2024-01-30T04:01:59;92053.22;;;4.87;49.42
69909;BME280;57190;47.918;8.112;2024-01-30T04:04:25;92051.00;;;4.97;49.14
69909;BME280;57190;47.918;8.112;2024-01-30T04:06:50;92050.56;;;4.87;49.91
69909;BME280;57190;47.918;8.112;2024-01-30T04:09:16;92052.81;;;4.97;49.07
69909;BME280;57190;47.918;8.112;2024-01-30T04:11:41;92048.13;;;4.99;48.44
69909;BME280;57190;47.918;8.112;2024-01-30T04:14:07;92054.84;;;5.01;48.47
69909;BME280;57190;47.918;8.112;2024-01-30T04:16:33;92046.91;;;5.01;48.39
69909;BME280;57190;47.918;8.112;2024-01-30T04:18:58;92051.81;;;5.11;47.93
69909;BME280;57190;47.918;8.112;2024-01-30T04:21:24;92040.19;;;5.19;46.31
69909;BME280;57190;47.918;8.112;2024-01-30T04:23:51;92042.81;;;5.19;47.05
69909;BME280;57190;47.918;8.112;2024-01-30T04:26:17;92046.09;;;5.14;47.51
69909;BME280;57190;47.918;8.112;2024-01-30T04:28:44;92048.13;;;5.12;47.01
69909;BME280;57190;47.918;8.112;2024-01-30T04:31:10;92047.31;;;5.18;46.43
69909;BME280;57190;47.918;8.112;2024-01-30T04:33:35;92040.38;;;5.31;44.92
69909;BME280;57190;47.918;8.112;2024-01-30T04:36:01;92051.34;;;5.34;45.25
69909;BME280;57190;47.918;8.112;2024-01-30T04:38:26;92043.63;;;5.33;44.17
69909;BME280;57190;47.918;8.112;2024-01-30T04:40:52;92049.72;;;5.40;44.18
69909;BME280;57190;47.918;8.112;2024-01-30T04:43:17;92053.81;;;5.36;43.93
69909;BME280;57190;47.918;8.112;2024-01-30T04:45:44;92051.97;;;5.30;44.76
69909;BME280;57190;47.918;8.112;2024-01-30T04:48:09;92053.00;;;5.29;44.19
69909;BME280;57190;47.918;8.112;2024-01-30T04:50:35;92053.41;;;5.26;44.54
69909;BME280;57190;47.918;8.112;2024-01-30T04:53:01;92053.19;;;5.27;44.71
69909;BME280;57190;47.918;8.112;2024-01-30T04:55:26;92057.88;;;5.32;44.32
69909;BME280;57190;47.918;8.112;2024-01-30T04:57:52;92059.50;;;5.26;44.80
69909;BME280;57190;47.918;8.112;2024-01-30T05:00:17;92057.47;;;5.28;44.87
69909;BME280;57190;47.918;8.112;2024-01-30T05:02:43;92058.31;;;5.22;45.88
69909;BME280;57190;47.918;8.112;2024-01-30T05:05:08;92069.50;;;5.17;46.07
69909;BME280;57190;47.918;8.112;2024-01-30T05:07:34;92061.94;;;5.34;44.55
69909;BME280;57190;47.918;8.112;2024-01-30T05:09:59;92054.22;;;5.40;44.46
69909;BME280;57190;47.918;8.112;2024-01-30T05:12:25;92068.88;;;5.29;46.15
69909;BME280;57190;47.918;8.112;2024-01-30T05:14:50;92061.97;;;5.21;46.49
69909;BME280;57190;47.918;8.112;2024-01-30T05:17:16;92066.03;;;5.30;45.96
69909;BME280;57190;47.918;8.112;2024-01-30T05:19:43;92067.25;;;5.21;46.46
69909;BME280;57190;47.918;8.112;2024-01-30T05:22:08;92062.75;;;5.28;46.21
69909;BME280;57190;47.918;8.112;2024-01-30T05:24:34;92072.53;;;5.34;45.82
69909;BME280;57190;47.918;8.112;2024-01-30T05:26:59;92059.50;;;5.33;46.29
69909;BME280;57190;47.918;8.112;2024-01-30T05:29:25;92066.22;;;5.35;46.07
69909;BME280;57190;47.918;8.112;2024-01-30T05:31:50;92071.31;;;5.30;46.38
69909;BME280;57190;47.918;8.112;2024-01-30T05:34:16;92060.94;;;5.22;46.86
69909;BME280;57190;47.918;8.112;2024-01-30T05:36:42;92067.44;;;5.26;46.29
69909;BME280;57190;47.918;8.112;2024-01-30T05:39:08;92065.81;;;5.32;45.69
69909;BME280;57190;47.918;8.112;2024-01-30T05:41:33;92070.09;;;5.26;46.83
69909;BME280;57190;47.918;8.112;2024-01-30T05:43:59;92068.28;;;5.20;46.82
69909;BME280;57190;47.918;8.112;2024-01-30T05:46:24;92074.16;;;5.09;48.21
69909;BME280;57190;47.918;8.112;2024-01-30T05:48:50;92059.94;;;5.10;48.06
69909;BME280;57190;47.918;8.112;2024-01-30T05:51:15;92063.19;;;5.12;47.01
69909;BME280;57190;47.918;8.112;2024-01-30T05:53:41;92063.41;;;5.10;47.65
69909;BME280;57190;47.918;8.112;2024-01-30T05:56:06;92065.03;;;5.04;47.86
69909;BME280;57190;47.918;8.112;2024-01-30T05:58:32;92066.63;;;5.12;47.34
69909;BME280;57190;47.918;8.112;2024-01-30T06:00:57;92058.31;;;5.22;46.82
69909;BME280;57190;47.918;8.112;2024-01-30T06:03:23;92060.13;;;5.28;46.83
69909;BME280;57190;47.918;8.112;2024-01-30T06:05:49;92059.72;;;5.25;46.75
69909;BME280;57190;47.918;8.112;2024-01-30T06:08:14;92056.47;;;5.16;46.97
69909;BME280;57190;47.918;8.112;2024-01-30T06:10:39;92068.88;;;5.09;48.07
69909;BME280;57190;47.918;8.112;2024-01-30T06:13:05;92063.59;;;4.95;48.71
69909;BME280;57190;47.918;8.112;2024-01-30T06:15:31;92062.19;;;4.93;48.62
69909;BME280;57190;47.918;8.112;2024-01-30T06:17:58;92068.69;;;4.90;48.72
69909;BME280;57190;47.918;8.112;2024-01-30T06:20:24;92063.19;;;4.92;48.92
69909;BME280;57190;47.918;8.112;2024-01-30T06:22:50;92065.63;;;4.93;49.07
69909;BME280;57190;47.918;8.112;2024-01-30T06:25:15;92070.28;;;4.91;49.11
69909;BME280;57190;47.918;8.112;2024-01-30T06:27:42;92072.13;;;4.91;49.02
69909;BME280;57190;47.918;8.112;2024-01-30T06:30:08;92074.97;;;4.82;49.91
69909;BME280;57190;47.918;8.112;2024-01-30T06:32:37;92069.50;;;4.77;50.42
69909;BME280;57190;47.918;8.112;2024-01-30T06:35:03;92073.56;;;4.80;50.86
69909;BME280;57190;47.918;8.112;2024-01-30T06:37:28;92078.41;;;4.83;51.55
69909;BME280;57190;47.918;8.112;2024-01-30T06:39:54;92077.00;;;4.80;51.15
69909;BME280;57190;47.918;8.112;2024-01-30T06:42:19;92071.91;;;4.72;51.35
69909;BME280;57190;47.918;8.112;2024-01-30T06:44:45;92074.56;;;4.65;52.22
69909;BME280;57190;47.918;8.112;2024-01-30T06:47:10;92078.63;;;4.68;52.09
69909;BME280;57190;47.918;8.112;2024-01-30T06:49:36;92072.72;;;4.66;52.51
69909;BME280;57190;47.918;8.112;2024-01-30T06:52:06;92074.13;;;4.62;52.77
69909;BME280;57190;47.918;8.112;2024-01-30T06:54:31;92079.22;;;4.63;52.61
69909;BME280;57190;47.918;8.112;2024-01-30T06:56:58;92076.00;;;4.68;51.39
69909;BME280;57190;47.918;8.112;2024-01-30T06:59:23;92083.91;;;4.61;50.62
69909;BME280;57190;47.918;8.112;2024-01-30T07:01:49;92083.50;;;4.64;50.71
69909;BME280;57190;47.918;8.112;2024-01-30T07:04:14;92078.22;;;4.64;50.45
69909;BME280;57190;47.918;8.112;2024-01-30T07:06:41;92078.81;;;4.66;50.50
69909;BME280;57190;47.918;8.112;2024-01-30T07:09:06;92080.66;;;4.79;49.79
69909;BME280;57190;47.918;8.112;2024-01-30T07:11:32;92089.00;;;4.76;50.74
69909;BME280;57190;47.918;8.112;2024-01-30T07:13:57;92085.97;;;4.72;50.84
69909;BME280;57190;47.918;8.112;2024-01-30T07:16:23;92091.25;;;4.72;51.98
69909;BME280;57190;47.918;8.112;2024-01-30T07:18:48;92090.22;;;4.80;51.12
69909;BME280;57190;47.918;8.112;2024-01-30T07:21:14;92086.56;;;4.81;51.48
69909;BME280;57190;47.918;8.112;2024-01-30T07:23:40;92096.72;;;4.78;52.39
69909;BME280;57190;47.918;8.112;2024-01-30T07:26:07;92092.28;;;4.78;53.36
69909;BME280;57190;47.918;8.112;2024-01-30T07:28:34;92095.13;;;4.83;52.82
69909;BME280;57190;47.918;8.112;2024-01-30T07:31:01;92097.75;;;4.83;53.26
69909;BME280;57190;47.918;8.112;2024-01-30T07:33:27;92104.25;;;4.87;52.95
69909;BME280;57190;47.918;8.112;2024-01-30T07:35:53;92106.28;;;4.92;53.04
69909;BME280;57190;47.918;8.112;2024-01-30T07:38:19;92099.22;;;4.99;53.17
69909;BME280;57190;47.918;8.112;2024-01-30T07:40:44;92104.47;;;5.06;52.92
69909;BME280;57190;47.918;8.112;2024-01-30T07:43:10;92093.31;;;5.24;51.73
69909;BME280;57190;47.918;8.112;2024-01-30T07:45:36;92103.44;;;5.54;51.83
69909;BME280;57190;47.918;8.112;2024-01-30T07:48:05;92098.00;;;6.21;50.10
69909;BME280;57190;47.918;8.112;2024-01-30T07:50:31;92092.56;;;7.19;49.28
69909;BME280;57190;47.918;8.112;2024-01-30T07:52:56;92107.50;;;8.63;47.14
69909;BME280;57190;47.918;8.112;2024-01-30T07:55:22;92092.69;;;10.23;44.98
69909;BME280;57190;47.918;8.112;2024-01-30T07:57:54;92095.25;;;10.71;41.30
69909;BME280;57190;47.918;8.112;2024-01-30T08:00:21;92092.72;;;10.64;41.80
69909;BME280;57190;47.918;8.112;2024-01-30T08:02:46;92098.47;;;10.20;42.34
69909;BME280;57190;47.918;8.112;2024-01-30T08:05:12;92105.63;;;9.25;43.69
69909;BME280;57190;47.918;8.112;2024-01-30T08:07:39;92097.97;;;8.86;45.76
69909;BME280;57190;47.918;8.112;2024-01-30T08:10:05;92103.63;;;8.59;47.14
69909;BME280;57190;47.918;8.112;2024-01-30T08:12:31;92100.31;;;8.64;45.55
69909;BME280;57190;47.918;8.112;2024-01-30T08:14:56;92097.06;;;9.35;43.93
69909;BME280;57190;47.918;8.112;2024-01-30T08:17:22;92092.06;;;10.57;42.71
69909;BME280;57190;47.918;8.112;2024-01-30T08:19:47;92090.72;;;11.80;41.87
69909;BME280;57190;47.918;8.112;2024-01-30T08:22:13;92095.00;;;12.77;40.22
69909;BME280;57190;47.918;8.112;2024-01-30T08:24:38;92086.50;;;14.00;37.45
69909;BME280;57190;47.918;8.112;2024-01-30T08:27:06;92077.78;;;15.88;32.57
69909;BME280;57190;47.918;8.112;2024-01-30T08:29:31;92085.72;;;17.82;30.62
69909;BME280;57190;47.918;8.112;2024-01-30T08:31:57;92073.63;;;18.97;28.74
69909;BME280;57190;47.918;8.112;2024-01-30T08:34:24;92084.09;;;19.85;27.64
69909;BME280;57190;47.918;8.112;2024-01-30T08:36:49;92083.78;;;19.87;28.28
69909;BME280;57190;47.918;8.112;2024-01-30T08:39:15;92078.81;;;22.63;27.51
69909;BME280;57190;47.918;8.112;2024-01-30T08:41:41;92071.81;;;22.61;26.03
69909;BME280;57190;47.918;8.112;2024-01-30T08:44:06;92077.06;;;22.58;26.44
69909;BME280;57190;47.918;8.112;2024-01-30T08:46:32;92076.41;;;20.72;27.23
69909;BME280;57190;47.918;8.112;2024-01-30T08:48:58;92077.97;;;17.30;30.46
69909;BME280;57190;47.918;8.112;2024-01-30T08:51:23;92080.44;;;15.57;33.40
69909;BME280;57190;47.918;8.112;2024-01-30T08:53:49;92076.31;;;14.45;34.49
69909;BME280;57190;47.918;8.112;2024-01-30T08:56:14;92082.47;;;13.65;35.32
69909;BME280;57190;47.918;8.112;2024-01-30T08:58:41;92070.56;;;13.23;37.36
69909;BME280;57190;47.918;8.112;2024-01-30T09:01:07;92077.31;;;12.76;37.95
69909;BME280;57190;47.918;8.112;2024-01-30T09:03:32;92066.09;;;12.35;39.31
69909;BME280;57190;47.918;8.112;2024-01-30T09:05:58;92078.19;;;11.98;40.37
69909;BME280;57190;47.918;8.112;2024-01-30T09:08:23;92082.13;;;11.78;40.95
69909;BME280;57190;47.918;8.112;2024-01-30T09:10:49;92075.09;;;11.72;40.07
69909;BME280;57190;47.918;8.112;2024-01-30T09:13:15;92084.66;;;11.68;40.66
69909;BME280;57190;47.918;8.112;2024-01-30T09:15:41;92084.81;;;11.61;40.03
69909;BME280;57190;47.918;8.112;2024-01-30T09:18:07;92080.44;;;11.55;39.57
69909;BME280;57190;47.918;8.112;2024-01-30T09:20:32;92080.53;;;11.60;40.49
69909;BME280;57190;47.918;8.112;2024-01-30T09:22:58;92089.44;;;11.49;39.69
69909;BME280;57190;47.918;8.112;2024-01-30T09:25:24;92088.78;;;11.42;39.76
69909;BME280;57190;47.918;8.112;2024-01-30T09:27:50;92083.59;;;11.52;39.71
69909;BME280;57190;47.918;8.112;2024-01-30T09:30:15;92089.09;;;11.45;39.76
69909;BME280;57190;47.918;8.112;2024-01-30T09:32:43;92092.88;;;11.32;39.29
69909;BME280;57190;47.918;8.112;2024-01-30T09:35:08;92093.72;;;11.33;40.75
69909;BME280;57190;47.918;8.112;2024-01-30T09:37:34;92103.44;;;11.39;41.67
69909;BME280;57190;47.918;8.112;2024-01-30T09:39:59;92100.44;;;11.53;39.35
69909;BME280;57190;47.918;8.112;2024-01-30T09:42:34;92099.63;;;11.52;39.68
69909;BME280;57190;47.918;8.112;2024-01-30T09:45:03;92095.25;;;11.63;37.83
69909;BME280;57190;47.918;8.112;2024-01-30T09:47:41;92100.47;;;11.70;37.83
69909;BME280;57190;47.918;8.112;2024-01-30T09:50:10;92099.72;;;11.74;36.17
69909;BME280;57190;47.918;8.112;2024-01-30T09:52:36;92098.50;;;11.82;35.79
69909;BME280;57190;47.918;8.112;2024-01-30T09:55:03;92109.69;;;11.79;35.37
69909;BME280;57190;47.918;8.112;2024-01-30T09:57:29;92099.94;;;11.73;35.81
69909;BME280;57190;47.918;8.112;2024-01-30T09:59:54;92114.16;;;11.73;37.69
69909;BME280;57190;47.918;8.112;2024-01-30T10:02:20;92115.91;;;11.68;36.53
69909;BME280;57190;47.918;8.112;2024-01-30T10:04:50;92110.25;;;11.64;34.91
69909;BME280;57190;47.918;8.112;2024-01-30T10:07:19;92116.06;;;11.44;34.92
69909;BME280;57190;47.918;8.112;2024-01-30T10:09:45;92107.53;;;11.30;34.76
69909;BME280;57190;47.918;8.112;2024-01-30T10:12:11;92117.31;;;11.24;35.95
69909;BME280;57190;47.918;8.112;2024-01-30T10:14:38;92116.66;;;11.17;36.62
69909;BME280;57190;47.918;8.112;2024-01-30T10:17:04;92113.56;;;11.08;37.42
69909;BME280;57190;47.918;8.112;2024-01-30T10:19:31;92123.72;;;10.94;37.53
69909;BME280;57190;47.918;8.112;2024-01-30T10:21:56;92119.66;;;10.92;35.86
69909;BME280;57190;47.918;8.112;2024-01-30T10:24:25;92115.16;;;10.92;35.47
69909;BME280;57190;47.918;8.112;2024-01-30T10:26:51;92117.16;;;10.85;37.17
69909;BME280;57190;47.918;8.112;2024-01-30T10:29:17;92116.69;;;10.76;37.09
69909;BME280;57190;47.918;8.112;2024-01-30T10:31:42;92098.72;;;10.72;36.95
69909;BME280;57190;47.918;8.112;2024-01-30T10:34:08;92103.72;;;10.68;37.09
69909;BME280;57190;47.918;8.112;2024-01-30T10:36:41;92102.31;;;10.77;38.40
69909;BME280;57190;47.918;8.112;2024-01-30T10:39:08;92111.50;;;10.69;36.84
69909;BME280;57190;47.918;8.112;2024-01-30T10:41:42;92112.91;;;10.72;36.42
69909;BME280;57190;47.918;8.112;2024-01-30T10:44:10;92103.84;;;10.73;35.89
69909;BME280;57190;47.918;8.112;2024-01-30T10:46:37;92099.88;;;10.76;35.70
69909;BME280;57190;47.918;8.112;2024-01-30T10:49:04;92095.13;;;10.78;35.71
69909;BME280;57190;47.918;8.112;2024-01-30T10:51:31;92091.84;;;10.88;36.46
69909;BME280;57190;47.918;8.112;2024-01-30T10:53:57;92091.84;;;10.88;37.60
69909;BME280;57190;47.918;8.112;2024-01-30T10:56:24;92093.88;;;10.97;36.97
69909;BME280;57190;47.918;8.112;2024-01-30T10:58:53;92092.44;;;11.07;37.05
69909;BME280;57190;47.918;8.112;2024-01-30T11:01:22;92097.88;;;11.12;36.33
69909;BME280;57190;47.918;8.112;2024-01-30T11:03:50;92085.34;;;11.12;35.70
69909;BME280;57190;47.918;8.112;2024-01-30T11:06:16;92088.97;;;11.06;35.63
69909;BME280;57190;47.918;8.112;2024-01-30T11:08:44;92087.25;;;11.00;35.34
69909;BME280;57190;47.918;8.112;2024-01-30T11:11:10;92086.19;;;11.01;36.17
69909;BME280;57190;47.918;8.112;2024-01-30T11:13:36;92087.69;;;11.09;36.96
69909;BME280;57190;47.918;8.112;2024-01-30T11:16:05;92080.19;;;11.23;36.90
69909;BME280;57190;47.918;8.112;2024-01-30T11:18:32;92082.22;;;11.32;36.46
69909;BME280;57190;47.918;8.112;2024-01-30T11:21:01;92083.50;;;11.30;35.64
69909;BME280;57190;47.918;8.112;2024-01-30T11:23:30;92074.19;;;11.32;36.23
69909;BME280;57190;47.918;8.112;2024-01-30T11:25:58;92073.16;;;11.33;36.40
69909;BME280;57190;47.918;8.112;2024-01-30T11:28:24;92076.16;;;11.37;36.19
69909;BME280;57190;47.918;8.112;2024-01-30T11:30:49;92078.88;;;11.42;36.28
69909;BME280;57190;47.918;8.112;2024-01-30T11:33:30;92080.69;;;11.37;36.65
69909;BME280;57190;47.918;8.112;2024-01-30T11:35:59;92083.69;;;11.40;36.18
69909;BME280;57190;47.918;8.112;2024-01-30T11:38:26;92077.69;;;11.50;37.00
69909;BME280;57190;47.918;8.112;2024-01-30T11:40:55;92082.69;;;11.63;37.07
69909;BME280;57190;47.918;8.112;2024-01-30T11:43:24;92075.19;;;11.60;36.15
69909;BME280;57190;47.918;8.112;2024-01-30T11:45:50;92075.41;;;11.59;36.92
69909;BME280;57190;47.918;8.112;2024-01-30T11:48:16;92079.16;;;11.58;36.87
69909;BME280;57190;47.918;8.112;2024-01-30T11:50:42;92074.69;;;11.63;36.89
69909;BME280;57190;47.918;8.112;2024-01-30T11:53:09;92072.28;;;11.79;37.08
69909;BME280;57190;47.918;8.112;2024-01-30T11:55:35;92075.88;;;12.07;37.33
69909;BME280;57190;47.918;8.112;2024-01-30T11:58:03;92070.94;;;12.60;36.98
69909;BME280;57190;47.918;8.112;2024-01-30T12:00:29;92064.22;;;12.80;36.59
69909;BME280;57190;47.918;8.112;2024-01-30T12:02:56;92061.81;;;13.05;35.01
69909;BME280;57190;47.918;8.112;2024-01-30T12:05:25;92061.25;;;13.31;33.85
69909;BME280;57190;47.918;8.112;2024-01-30T12:07:51;92061.44;;;13.46;34.40
69909;BME280;57190;47.918;8.112;2024-01-30T12:10:17;92066.84;;;13.51;35.17
69909;BME280;57190;47.918;8.112;2024-01-30T12:12:47;92067.34;;;13.48;35.68
69909;BME280;57190;47.918;8.112;2024-01-30T12:15:13;92058.81;;;13.57;35.37
69909;BME280;57190;47.918;8.112;2024-01-30T12:17:39;92055.63;;;13.60;34.51
69909;BME280;57190;47.918;8.112;2024-01-30T12:20:09;92051.97;;;13.39;35.14
69909;BME280;57190;47.918;8.112;2024-01-30T12:22:44;92048.53;;;13.43;35.22
69909;BME280;57190;47.918;8.112;2024-01-30T12:25:11;92057.22;;;13.28;36.08
69909;BME280;57190;47.918;8.112;2024-01-30T12:27:37;92048.22;;;13.12;36.89
69909;BME280;57190;47.918;8.112;2024-01-30T12:30:13;92051.09;;;12.78;37.53
69909;BME280;57190;47.918;8.112;2024-01-30T12:32:43;92056.34;;;12.68;37.83
69909;BME280;57190;47.918;8.112;2024-01-30T12:35:15;92043.13;;;12.83;37.66
69909;BME280;57190;47.918;8.112;2024-01-30T12:37:42;92044.53;;;13.18;37.67
69909;BME280;57190;47.918;8.112;2024-01-30T12:40:09;92052.31;;;13.47;37.39
69909;BME280;57190;47.918;8.112;2024-01-30T12:42:35;92052.22;;;13.37;37.09
69909;BME280;57190;47.918;8.112;2024-01-30T12:45:03;92055.66;;;13.05;37.16
69909;BME280;57190;47.918;8.112;2024-01-30T12:47:29;92054.88;;;12.82;37.30
69909;BME280;57190;47.918;8.112;2024-01-30T12:49:55;92054.84;;;12.55;37.93
69909;BME280;57190;47.918;8.112;2024-01-30T12:52:21;92059.13;;;12.34;38.32
69909;BME280;57190;47.918;8.112;2024-01-30T12:54:48;92061.25;;;12.32;39.25
69909;BME280;57190;47.918;8.112;2024-01-30T12:57:13;92062.38;;;12.36;39.07
69909;BME280;57190;47.918;8.112;2024-01-30T12:59:39;92060.44;;;12.31;39.16
69909;BME280;57190;47.918;8.112;2024-01-30T13:02:05;92059.25;;;12.22;39.79